sensor_id;sensor_type;location;lat;lon;timestamp;P1;durP1;ratioP1;P2;durP2;ratioP2
57730;SDS011;43570;47.476;19.040;2023-02-17T00:00:34;78.57;;;62.17;;
57730;SDS011;43570;47.476;19.040;2023-02-17T00:02:59;84.22;;;65.22;;
57730;SDS011;43570;47.476;19.040;2023-02-17T00:05:25;85.30;;;67.93;;
57730;SDS011;43570;47.476;19.040;2023-02-17T00:07:51;80.28;;;63.85;;
57730;SDS011;43570;47.476;19.040;2023-02-17T00:10:17;83.62;;;66.37;;
57730;SDS011;43570;47.476;19.040;2023-02-17T00:12:42;88.47;;;67.55;;
57730;SDS011;43570;47.476;19.040;2023-02-17T00:15:08;81.82;;;64.87;;
57730;SDS011;43570;47.476;19.040;2023-02-17T00:17:33;83.00;;;64.85;;
57730;SDS011;43570;47.476;19.040;2023-02-17T00:19:59;85.53;;;65.70;;
57730;SDS011;43570;47.476;19.040;2023-02-17T00:22:24;82.35;;;66.65;;
57730;SDS011;43570;47.476;19.040;2023-02-17T00:24:50;82.00;;;67.05;;
57730;SDS011;43570;47.476;19.040;2023-02-17T00:27:15;81.87;;;65.12;;
57730;SDS011;43570;47.476;19.040;2023-02-17T00:29:41;84.10;;;67.03;;
57730;SDS011;43570;47.476;19.040;2023-02-17T00:32:06;91.07;;;67.45;;
57730;SDS011;43570;47.476;19.040;2023-02-17T00:34:34;82.45;;;65.43;;
57730;SDS011;43570;47.476;19.040;2023-02-17T00:36:59;88.72;;;67.60;;
57730;SDS011;43570;47.476;19.040;2023-02-17T00:39:25;83.82;;;66.32;;
57730;SDS011;43570;47.476;19.040;2023-02-17T00:41:50;82.47;;;66.90;;
57730;SDS011;43570;47.476;19.040;2023-02-17T00:44:17;80.90;;;63.92;;
57730;SDS011;43570;47.476;19.040;2023-02-17T00:46:46;86.50;;;66.95;;
57730;SDS011;43570;47.476;19.040;2023-02-17T00:49:16;83.47;;;64.95;;
57730;SDS011;43570;47.476;19.040;2023-02-17T00:51:43;79.10;;;62.38;;
57730;SDS011;43570;47.476;19.040;2023-02-17T00:54:09;81.57;;;64.43;;
57730;SDS011;43570;47.476;19.040;2023-02-17T00:56:35;83.03;;;63.40;;
57730;SDS011;43570;47.476;19.040;2023-02-17T00:59:01;79.22;;;62.45;;
57730;SDS011;43570;47.476;19.040;2023-02-17T01:01:26;73.75;;;59.85;;
57730;SDS011;43570;47.476;19.040;2023-02-17T01:03:51;79.20;;;62.40;;
57730;SDS011;43570;47.476;19.040;2023-02-17T01:06:19;79.55;;;60.33;;
57730;SDS011;43570;47.476;19.040;2023-02-17T01:08:47;76.20;;;60.10;;
57730;SDS011;43570;47.476;19.040;2023-02-17T01:11:19;78.28;;;62.38;;
57730;SDS011;43570;47.476;19.040;2023-02-17T01:13:50;81.30;;;62.62;;
57730;SDS011;43570;47.476;19.040;2023-02-17T01:16:37;74.32;;;60.70;;
57730;SDS011;43570;47.476;19.040;2023-02-17T01:19:07;78.22;;;61.00;;
57730;SDS011;43570;47.476;19.040;2023-02-17T01:21:34;75.15;;;60.85;;
57730;SDS011;43570;47.476;19.040;2023-02-17T01:24:01;82.35;;;61.88;;
57730;SDS011;43570;47.476;19.040;2023-02-17T01:26:27;75.72;;;60.05;;
57730;SDS011;43570;47.476;19.040;2023-02-17T01:28:54;78.50;;;61.95;;
57730;SDS011;43570;47.476;19.040;2023-02-17T01:31:20;76.00;;;60.00;;
57730;SDS011;43570;47.476;19.040;2023-02-17T01:33:46;76.37;;;60.58;;
57730;SDS011;43570;47.476;19.040;2023-02-17T01:36:13;74.78;;;58.25;;
57730;SDS011;43570;47.476;19.040;2023-02-17T01:38:41;71.85;;;59.35;;
57730;SDS011;43570;47.476;19.040;2023-02-17T01:41:07;79.72;;;61.05;;
57730;SDS011;43570;47.476;19.040;2023-02-17T01:43:34;75.32;;;58.95;;
57730;SDS011;43570;47.476;19.040;2023-02-17T01:46:02;71.93;;;57.85;;
57730;SDS011;43570;47.476;19.040;2023-02-17T01:48:35;75.07;;;58.83;;
57730;SDS011;43570;47.476;19.040;2023-02-17T01:51:25;74.40;;;56.15;;
57730;SDS011;43570;47.476;19.040;2023-02-17T01:53:52;71.18;;;57.33;;
57730;SDS011;43570;47.476;19.040;2023-02-17T01:56:24;71.65;;;57.85;;
57730;SDS011;43570;47.476;19.040;2023-02-17T01:58:56;68.03;;;56.85;;
57730;SDS011;43570;47.476;19.040;2023-02-17T02:01:24;72.50;;;55.67;;
57730;SDS011;43570;47.476;19.040;2023-02-17T02:03:50;74.62;;;58.08;;
57730;SDS011;43570;47.476;19.040;2023-02-17T02:06:17;72.22;;;57.92;;
57730;SDS011;43570;47.476;19.040;2023-02-17T02:09:02;72.55;;;59.67;;
57730;SDS011;43570;47.476;19.040;2023-02-17T02:11:28;76.00;;;59.08;;
57730;SDS011;43570;47.476;19.040;2023-02-17T02:13:53;74.78;;;59.42;;
57730;SDS011;43570;47.476;19.040;2023-02-17T02:16:21;70.07;;;57.00;;
57730;SDS011;43570;47.476;19.040;2023-02-17T02:38:36;69.72;;;55.58;;
57730;SDS011;43570;47.476;19.040;2023-02-17T02:41:10;74.87;;;58.33;;
57730;SDS011;43570;47.476;19.040;2023-02-17T02:43:39;69.32;;;56.08;;
57730;SDS011;43570;47.476;19.040;2023-02-17T02:46:05;71.95;;;56.95;;
57730;SDS011;43570;47.476;19.040;2023-02-17T02:48:31;72.97;;;55.75;;
57730;SDS011;43570;47.476;19.040;2023-02-17T03:07:14;58.42;;;46.70;;
57730;SDS011;43570;47.476;19.040;2023-02-17T03:09:46;62.75;;;48.92;;
57730;SDS011;43570;47.476;19.040;2023-02-17T03:12:13;58.08;;;45.08;;
57730;SDS011;43570;47.476;19.040;2023-02-17T03:14:39;57.28;;;44.90;;
57730;SDS011;43570;47.476;19.040;2023-02-17T03:17:06;58.38;;;44.30;;
57730;SDS011;43570;47.476;19.040;2023-02-17T03:19:32;57.50;;;44.70;;
57730;SDS011;43570;47.476;19.040;2023-02-17T03:22:04;56.20;;;45.17;;
57730;SDS011;43570;47.476;19.040;2023-02-17T03:24:34;56.50;;;43.50;;
57730;SDS011;43570;47.476;19.040;2023-02-17T03:26:59;57.10;;;45.30;;
57730;SDS011;43570;47.476;19.040;2023-02-17T03:29:25;52.75;;;42.00;;
57730;SDS011;43570;47.476;19.040;2023-02-17T03:31:50;55.80;;;45.47;;
57730;SDS011;43570;47.476;19.040;2023-02-17T03:34:16;59.10;;;46.33;;
57730;SDS011;43570;47.476;19.040;2023-02-17T03:36:41;59.20;;;45.90;;
57730;SDS011;43570;47.476;19.040;2023-02-17T03:39:07;54.95;;;43.58;;
57730;SDS011;43570;47.476;19.040;2023-02-17T03:41:32;50.92;;;41.72;;
57730;SDS011;43570;47.476;19.040;2023-02-17T03:43:57;53.30;;;42.62;;
57730;SDS011;43570;47.476;19.040;2023-02-17T03:46:23;55.80;;;43.00;;
57730;SDS011;43570;47.476;19.040;2023-02-17T03:48:48;54.75;;;41.47;;
57730;SDS011;43570;47.476;19.040;2023-02-17T03:51:16;49.45;;;40.65;;
57730;SDS011;43570;47.476;19.040;2023-02-17T03:53:43;51.35;;;40.30;;
57730;SDS011;43570;47.476;19.040;2023-02-17T03:56:10;51.20;;;40.80;;
57730;SDS011;43570;47.476;19.040;2023-02-17T03:58:36;50.70;;;39.53;;
57730;SDS011;43570;47.476;19.040;2023-02-17T04:01:03;51.67;;;39.42;;
57730;SDS011;43570;47.476;19.040;2023-02-17T04:03:29;48.65;;;38.45;;
57730;SDS011;43570;47.476;19.040;2023-02-17T04:05:54;49.40;;;39.92;;
57730;SDS011;43570;47.476;19.040;2023-02-17T04:08:20;52.70;;;41.15;;
57730;SDS011;43570;47.476;19.040;2023-02-17T04:10:49;52.67;;;40.53;;
57730;SDS011;43570;47.476;19.040;2023-02-17T04:15:41;52.25;;;41.13;;
57730;SDS011;43570;47.476;19.040;2023-02-17T04:18:06;55.92;;;40.90;;
57730;SDS011;43570;47.476;19.040;2023-02-17T04:20:32;50.63;;;40.12;;
57730;SDS011;43570;47.476;19.040;2023-02-17T04:22:57;52.00;;;41.42;;
57730;SDS011;43570;47.476;19.040;2023-02-17T04:25:22;47.83;;;39.38;;
57730;SDS011;43570;47.476;19.040;2023-02-17T04:27:48;52.45;;;40.97;;
57730;SDS011;43570;47.476;19.040;2023-02-17T04:30:13;50.28;;;39.65;;
57730;SDS011;43570;47.476;19.040;2023-02-17T04:32:39;54.25;;;41.80;;
57730;SDS011;43570;47.476;19.040;2023-02-17T04:35:04;53.67;;;40.10;;
57730;SDS011;43570;47.476;19.040;2023-02-17T04:37:30;51.80;;;40.95;;
57730;SDS011;43570;47.476;19.040;2023-02-17T04:39:55;51.47;;;40.53;;
57730;SDS011;43570;47.476;19.040;2023-02-17T04:42:21;52.40;;;41.40;;
57730;SDS011;43570;47.476;19.040;2023-02-17T04:44:46;49.78;;;40.28;;
57730;SDS011;43570;47.476;19.040;2023-02-17T04:47:12;54.42;;;39.50;;
57730;SDS011;43570;47.476;19.040;2023-02-17T04:49:37;51.88;;;40.00;;
57730;SDS011;43570;47.476;19.040;2023-02-17T04:52:02;51.10;;;40.80;;
57730;SDS011;43570;47.476;19.040;2023-02-17T04:54:28;54.55;;;41.67;;
57730;SDS011;43570;47.476;19.040;2023-02-17T04:56:53;50.58;;;39.83;;
57730;SDS011;43570;47.476;19.040;2023-02-17T04:59:19;56.17;;;42.38;;
57730;SDS011;43570;47.476;19.040;2023-02-17T05:01:44;54.28;;;40.70;;
57730;SDS011;43570;47.476;19.040;2023-02-17T05:04:10;53.00;;;39.72;;
57730;SDS011;43570;47.476;19.040;2023-02-17T05:06:35;51.95;;;40.70;;
57730;SDS011;43570;47.476;19.040;2023-02-17T05:09:01;52.13;;;40.72;;
57730;SDS011;43570;47.476;19.040;2023-02-17T05:11:26;48.60;;;38.78;;
57730;SDS011;43570;47.476;19.040;2023-02-17T05:13:52;53.95;;;41.90;;
57730;SDS011;43570;47.476;19.040;2023-02-17T05:16:18;51.75;;;41.22;;
57730;SDS011;43570;47.476;19.040;2023-02-17T05:18:44;51.47;;;41.58;;
57730;SDS011;43570;47.476;19.040;2023-02-17T05:21:10;52.67;;;41.90;;
57730;SDS011;43570;47.476;19.040;2023-02-17T05:23:35;50.00;;;41.08;;
57730;SDS011;43570;47.476;19.040;2023-02-17T05:26:05;50.97;;;40.15;;
57730;SDS011;43570;47.476;19.040;2023-02-17T05:28:33;53.60;;;41.65;;
57730;SDS011;43570;47.476;19.040;2023-02-17T05:30:59;53.60;;;42.08;;
57730;SDS011;43570;47.476;19.040;2023-02-17T05:33:25;55.83;;;44.17;;
57730;SDS011;43570;47.476;19.040;2023-02-17T05:35:50;55.72;;;41.75;;
57730;SDS011;43570;47.476;19.040;2023-02-17T05:38:15;53.80;;;42.70;;
57730;SDS011;43570;47.476;19.040;2023-02-17T05:40:41;59.30;;;47.35;;
57730;SDS011;43570;47.476;19.040;2023-02-17T05:43:06;56.03;;;43.35;;
57730;SDS011;43570;47.476;19.040;2023-02-17T05:45:32;53.05;;;42.65;;
57730;SDS011;43570;47.476;19.040;2023-02-17T05:47:57;54.58;;;42.65;;
57730;SDS011;43570;47.476;19.040;2023-02-17T05:50:23;52.00;;;42.20;;
57730;SDS011;43570;47.476;19.040;2023-02-17T05:52:48;54.05;;;41.53;;
57730;SDS011;43570;47.476;19.040;2023-02-17T05:55:14;53.55;;;42.40;;
57730;SDS011;43570;47.476;19.040;2023-02-17T05:57:40;54.38;;;41.65;;
57730;SDS011;43570;47.476;19.040;2023-02-17T06:00:05;50.45;;;41.30;;
57730;SDS011;43570;47.476;19.040;2023-02-17T06:02:31;50.70;;;41.70;;
57730;SDS011;43570;47.476;19.040;2023-02-17T06:04:56;53.30;;;42.72;;
57730;SDS011;43570;47.476;19.040;2023-02-17T06:07:22;52.47;;;42.35;;
57730;SDS011;43570;47.476;19.040;2023-02-17T06:09:47;50.47;;;40.45;;
57730;SDS011;43570;47.476;19.040;2023-02-17T06:12:13;56.72;;;42.50;;
57730;SDS011;43570;47.476;19.040;2023-02-17T06:14:38;54.08;;;40.10;;
57730;SDS011;43570;47.476;19.040;2023-02-17T06:17:05;52.08;;;40.45;;
57730;SDS011;43570;47.476;19.040;2023-02-17T06:19:30;53.72;;;41.53;;
57730;SDS011;43570;47.476;19.040;2023-02-17T06:21:55;49.47;;;39.92;;
57730;SDS011;43570;47.476;19.040;2023-02-17T06:24:22;50.28;;;39.03;;
57730;SDS011;43570;47.476;19.040;2023-02-17T06:26:48;49.80;;;38.80;;
57730;SDS011;43570;47.476;19.040;2023-02-17T06:29:14;52.92;;;41.05;;
57730;SDS011;43570;47.476;19.040;2023-02-17T06:31:39;48.53;;;39.03;;
57730;SDS011;43570;47.476;19.040;2023-02-17T06:34:05;50.92;;;41.10;;
57730;SDS011;43570;47.476;19.040;2023-02-17T06:36:36;48.40;;;38.80;;
57730;SDS011;43570;47.476;19.040;2023-02-17T06:39:02;50.22;;;39.53;;
57730;SDS011;43570;47.476;19.040;2023-02-17T06:41:27;51.00;;;39.80;;
57730;SDS011;43570;47.476;19.040;2023-02-17T06:43:53;46.55;;;38.65;;
57730;SDS011;43570;47.476;19.040;2023-02-17T06:46:18;49.97;;;39.33;;
57730;SDS011;43570;47.476;19.040;2023-02-17T06:48:43;48.20;;;38.40;;
57730;SDS011;43570;47.476;19.040;2023-02-17T06:51:09;43.45;;;36.17;;
57730;SDS011;43570;47.476;19.040;2023-02-17T06:53:35;48.35;;;36.92;;
57730;SDS011;43570;47.476;19.040;2023-02-17T06:56:00;46.33;;;37.40;;
57730;SDS011;43570;47.476;19.040;2023-02-17T06:58:27;44.55;;;35.38;;
57730;SDS011;43570;47.476;19.040;2023-02-17T07:00:52;45.58;;;35.35;;
57730;SDS011;43570;47.476;19.040;2023-02-17T07:03:18;46.30;;;35.20;;
57730;SDS011;43570;47.476;19.040;2023-02-17T07:05:43;45.92;;;35.05;;
57730;SDS011;43570;47.476;19.040;2023-02-17T07:08:09;44.67;;;35.55;;
57730;SDS011;43570;47.476;19.040;2023-02-17T07:10:35;43.05;;;35.00;;
57730;SDS011;43570;47.476;19.040;2023-02-17T07:13:01;45.08;;;34.38;;
57730;SDS011;43570;47.476;19.040;2023-02-17T07:15:26;45.35;;;35.28;;
57730;SDS011;43570;47.476;19.040;2023-02-17T07:17:52;46.85;;;36.30;;
57730;SDS011;43570;47.476;19.040;2023-02-17T07:20:17;47.85;;;33.47;;
57730;SDS011;43570;47.476;19.040;2023-02-17T07:22:42;45.60;;;34.53;;
57730;SDS011;43570;47.476;19.040;2023-02-17T07:25:08;45.30;;;33.78;;
57730;SDS011;43570;47.476;19.040;2023-02-17T07:27:37;47.03;;;35.30;;
57730;SDS011;43570;47.476;19.040;2023-02-17T07:30:03;43.03;;;34.97;;
57730;SDS011;43570;47.476;19.040;2023-02-17T07:32:29;45.50;;;36.22;;
57730;SDS011;43570;47.476;19.040;2023-02-17T07:34:54;51.17;;;39.55;;
57730;SDS011;43570;47.476;19.040;2023-02-17T07:37:20;46.95;;;37.08;;
57730;SDS011;43570;47.476;19.040;2023-02-17T07:39:46;47.45;;;37.38;;
57730;SDS011;43570;47.476;19.040;2023-02-17T07:42:12;53.33;;;39.08;;
57730;SDS011;43570;47.476;19.040;2023-02-17T07:44:38;51.88;;;38.05;;
57730;SDS011;43570;47.476;19.040;2023-02-17T07:47:03;51.33;;;39.40;;
57730;SDS011;43570;47.476;19.040;2023-02-17T07:49:28;50.90;;;38.63;;
57730;SDS011;43570;47.476;19.040;2023-02-17T07:51:54;52.47;;;39.35;;
57730;SDS011;43570;47.476;19.040;2023-02-17T07:54:19;49.92;;;38.97;;
57730;SDS011;43570;47.476;19.040;2023-02-17T07:56:45;49.58;;;38.75;;
57730;SDS011;43570;47.476;19.040;2023-02-17T07:59:11;52.60;;;39.42;;
57730;SDS011;43570;47.476;19.040;2023-02-17T08:01:37;50.88;;;38.35;;
57730;SDS011;43570;47.476;19.040;2023-02-17T08:04:03;51.70;;;39.55;;
57730;SDS011;43570;47.476;19.040;2023-02-17T08:06:28;52.62;;;38.60;;
57730;SDS011;43570;47.476;19.040;2023-02-17T08:08:54;50.42;;;37.22;;
57730;SDS011;43570;47.476;19.040;2023-02-17T08:11:39;113.22;;;45.70;;
57730;SDS011;43570;47.476;19.040;2023-02-17T08:14:24;45.50;;;36.72;;
57730;SDS011;43570;47.476;19.040;2023-02-17T08:16:51;74.30;;;40.12;;
57730;SDS011;43570;47.476;19.040;2023-02-17T08:19:17;53.30;;;38.53;;
57730;SDS011;43570;47.476;19.040;2023-02-17T08:21:44;47.75;;;36.10;;
57730;SDS011;43570;47.476;19.040;2023-02-17T08:24:10;47.22;;;35.92;;
57730;SDS011;43570;47.476;19.040;2023-02-17T08:26:36;41.13;;;35.28;;
57730;SDS011;43570;47.476;19.040;2023-02-17T08:29:02;44.03;;;34.85;;
57730;SDS011;43570;47.476;19.040;2023-02-17T08:31:28;44.95;;;34.58;;
57730;SDS011;43570;47.476;19.040;2023-02-17T08:33:56;52.55;;;36.33;;
57730;SDS011;43570;47.476;19.040;2023-02-17T08:36:22;45.83;;;34.85;;
57730;SDS011;43570;47.476;19.040;2023-02-17T08:38:48;45.22;;;34.00;;
57730;SDS011;43570;47.476;19.040;2023-02-17T08:41:22;45.75;;;34.75;;
57730;SDS011;43570;47.476;19.040;2023-02-17T08:43:49;44.15;;;33.67;;
57730;SDS011;43570;47.476;19.040;2023-02-17T08:46:16;42.95;;;32.63;;
57730;SDS011;43570;47.476;19.040;2023-02-17T08:48:42;38.65;;;30.70;;
57730;SDS011;43570;47.476;19.040;2023-02-17T08:51:11;35.97;;;28.02;;
57730;SDS011;43570;47.476;19.040;2023-02-17T08:56:03;39.70;;;30.00;;
57730;SDS011;43570;47.476;19.040;2023-02-17T08:58:29;31.60;;;24.67;;
57730;SDS011;43570;47.476;19.040;2023-02-17T09:00:55;36.88;;;26.27;;
57730;SDS011;43570;47.476;19.040;2023-02-17T09:03:21;34.00;;;24.77;;
57730;SDS011;43570;47.476;19.040;2023-02-17T09:05:46;36.13;;;25.37;;
57730;SDS011;43570;47.476;19.040;2023-02-17T09:08:12;35.72;;;26.55;;
57730;SDS011;43570;47.476;19.040;2023-02-17T09:10:37;31.48;;;25.12;;
57730;SDS011;43570;47.476;19.040;2023-02-17T09:13:03;29.73;;;23.95;;
57730;SDS011;43570;47.476;19.040;2023-02-17T09:15:29;31.75;;;24.70;;
57730;SDS011;43570;47.476;19.040;2023-02-17T09:17:55;31.17;;;23.45;;
57730;SDS011;43570;47.476;19.040;2023-02-17T09:20:21;32.38;;;25.45;;
57730;SDS011;43570;47.476;19.040;2023-02-17T09:22:46;27.33;;;22.10;;
57730;SDS011;43570;47.476;19.040;2023-02-17T09:25:11;29.75;;;23.20;;
57730;SDS011;43570;47.476;19.040;2023-02-17T09:27:37;27.90;;;22.17;;
57730;SDS011;43570;47.476;19.040;2023-02-17T09:30:03;27.13;;;21.60;;
57730;SDS011;43570;47.476;19.040;2023-02-17T09:32:28;28.23;;;21.33;;
57730;SDS011;43570;47.476;19.040;2023-02-17T09:34:54;26.42;;;19.17;;
57730;SDS011;43570;47.476;19.040;2023-02-17T09:37:20;28.95;;;20.35;;
57730;SDS011;43570;47.476;19.040;2023-02-17T09:39:46;29.30;;;22.13;;
57730;SDS011;43570;47.476;19.040;2023-02-17T09:42:19;27.80;;;21.77;;
57730;SDS011;43570;47.476;19.040;2023-02-17T09:45:09;26.33;;;20.70;;
57730;SDS011;43570;47.476;19.040;2023-02-17T09:50:05;28.33;;;19.73;;
57730;SDS011;43570;47.476;19.040;2023-02-17T09:55:47;27.27;;;20.30;;
57730;SDS011;43570;47.476;19.040;2023-02-17T09:58:25;27.35;;;20.42;;
57730;SDS011;43570;47.476;19.040;2023-02-17T10:00:56;26.37;;;20.40;;
57730;SDS011;43570;47.476;19.040;2023-02-17T10:03:29;27.02;;;20.73;;
57730;SDS011;43570;47.476;19.040;2023-02-17T10:08:54;27.90;;;22.25;;
57730;SDS011;43570;47.476;19.040;2023-02-17T10:16:55;29.85;;;22.25;;
57730;SDS011;43570;47.476;19.040;2023-02-17T10:19:26;33.97;;;24.92;;
57730;SDS011;43570;47.476;19.040;2023-02-17T10:22:00;30.80;;;24.02;;
57730;SDS011;43570;47.476;19.040;2023-02-17T10:24:30;33.50;;;24.75;;
57730;SDS011;43570;47.476;19.040;2023-02-17T10:26:59;39.22;;;28.23;;
57730;SDS011;43570;47.476;19.040;2023-02-17T10:32:14;42.10;;;32.35;;
57730;SDS011;43570;47.476;19.040;2023-02-17T10:37:53;39.63;;;32.92;;
57730;SDS011;43570;47.476;19.040;2023-02-17T10:40:40;42.42;;;34.17;;
57730;SDS011;43570;47.476;19.040;2023-02-17T10:43:07;50.30;;;35.05;;
57730;SDS011;43570;47.476;19.040;2023-02-17T10:45:35;49.38;;;36.60;;
57730;SDS011;43570;47.476;19.040;2023-02-17T10:48:14;48.80;;;39.10;;
57730;SDS011;43570;47.476;19.040;2023-02-17T10:50:44;46.78;;;40.08;;
57730;SDS011;43570;47.476;19.040;2023-02-17T10:53:17;47.65;;;38.88;;
57730;SDS011;43570;47.476;19.040;2023-02-17T11:01:43;47.53;;;39.63;;
57730;SDS011;43570;47.476;19.040;2023-02-17T11:04:09;48.03;;;39.88;;
57730;SDS011;43570;47.476;19.040;2023-02-17T11:06:47;48.72;;;39.65;;
57730;SDS011;43570;47.476;19.040;2023-02-17T11:09:19;48.70;;;40.42;;
57730;SDS011;43570;47.476;19.040;2023-02-17T11:11:49;49.67;;;40.12;;
57730;SDS011;43570;47.476;19.040;2023-02-17T11:14:28;48.97;;;39.05;;
57730;SDS011;43570;47.476;19.040;2023-02-17T11:16:59;47.55;;;36.95;;
57730;SDS011;43570;47.476;19.040;2023-02-17T11:19:30;45.92;;;36.88;;
57730;SDS011;43570;47.476;19.040;2023-02-17T11:22:01;47.35;;;36.80;;
57730;SDS011;43570;47.476;19.040;2023-02-17T11:24:29;44.65;;;36.72;;
57730;SDS011;43570;47.476;19.040;2023-02-17T11:27:09;48.00;;;38.45;;
57730;SDS011;43570;47.476;19.040;2023-02-17T11:29:35;44.37;;;36.40;;
57730;SDS011;43570;47.476;19.040;2023-02-17T11:32:03;47.67;;;38.60;;
57730;SDS011;43570;47.476;19.040;2023-02-17T11:34:31;47.53;;;36.78;;
57730;SDS011;43570;47.476;19.040;2023-02-17T11:37:05;43.40;;;35.78;;
57730;SDS011;43570;47.476;19.040;2023-02-17T11:39:43;47.08;;;38.42;;
57730;SDS011;43570;47.476;19.040;2023-02-17T11:42:19;50.33;;;39.95;;
57730;SDS011;43570;47.476;19.040;2023-02-17T11:44:53;48.55;;;39.47;;
57730;SDS011;43570;47.476;19.040;2023-02-17T11:50:31;52.83;;;40.60;;
57730;SDS011;43570;47.476;19.040;2023-02-17T12:04:14;47.55;;;40.05;;
57730;SDS011;43570;47.476;19.040;2023-02-17T12:14:39;48.10;;;38.85;;
57730;SDS011;43570;47.476;19.040;2023-02-17T12:17:18;48.53;;;39.75;;
57730;SDS011;43570;47.476;19.040;2023-02-17T12:22:39;52.08;;;43.10;;
57730;SDS011;43570;47.476;19.040;2023-02-17T12:25:30;53.28;;;42.38;;
57730;SDS011;43570;47.476;19.040;2023-02-17T12:28:01;54.30;;;43.22;;
57730;SDS011;43570;47.476;19.040;2023-02-17T12:36:30;53.80;;;45.17;;
57730;SDS011;43570;47.476;19.040;2023-02-17T12:39:02;53.67;;;44.50;;
57730;SDS011;43570;47.476;19.040;2023-02-17T12:41:37;56.50;;;46.90;;
57730;SDS011;43570;47.476;19.040;2023-02-17T12:44:06;55.03;;;48.38;;
57730;SDS011;43570;47.476;19.040;2023-02-17T12:46:43;58.25;;;46.97;;
57730;SDS011;43570;47.476;19.040;2023-02-17T12:49:12;57.42;;;46.92;;
57730;SDS011;43570;47.476;19.040;2023-02-17T12:57:19;59.65;;;47.28;;
57730;SDS011;43570;47.476;19.040;2023-02-17T12:59:48;58.05;;;47.45;;
57730;SDS011;43570;47.476;19.040;2023-02-17T13:04:42;60.60;;;49.53;;
57730;SDS011;43570;47.476;19.040;2023-02-17T13:09:54;56.15;;;45.15;;
57730;SDS011;43570;47.476;19.040;2023-02-17T13:14:49;53.72;;;45.00;;
57730;SDS011;43570;47.476;19.040;2023-02-17T13:17:31;57.47;;;44.75;;
57730;SDS011;43570;47.476;19.040;2023-02-17T13:20:04;56.42;;;44.78;;
57730;SDS011;43570;47.476;19.040;2023-02-17T13:22:36;56.25;;;44.85;;
57730;SDS011;43570;47.476;19.040;2023-02-17T13:25:02;56.30;;;44.42;;
57730;SDS011;43570;47.476;19.040;2023-02-17T13:29:59;55.25;;;43.92;;
57730;SDS011;43570;47.476;19.040;2023-02-17T13:32:27;52.40;;;43.78;;
57730;SDS011;43570;47.476;19.040;2023-02-17T13:35:01;55.20;;;45.25;;
57730;SDS011;43570;47.476;19.040;2023-02-17T13:37:37;57.05;;;46.15;;
57730;SDS011;43570;47.476;19.040;2023-02-17T13:42:46;53.45;;;45.63;;
57730;SDS011;43570;47.476;19.040;2023-02-17T13:47:56;58.35;;;48.33;;
57730;SDS011;43570;47.476;19.040;2023-02-17T13:52:57;58.45;;;46.42;;
57730;SDS011;43570;47.476;19.040;2023-02-17T13:55:23;57.22;;;45.97;;
57730;SDS011;43570;47.476;19.040;2023-02-17T13:57:52;59.15;;;48.20;;
57730;SDS011;43570;47.476;19.040;2023-02-17T14:00:23;56.40;;;46.70;;
57730;SDS011;43570;47.476;19.040;2023-02-17T14:03:25;54.03;;;47.35;;
57730;SDS011;43570;47.476;19.040;2023-02-17T14:06:05;54.92;;;47.08;;
57730;SDS011;43570;47.476;19.040;2023-02-17T14:08:42;55.80;;;47.28;;
57730;SDS011;43570;47.476;19.040;2023-02-17T14:11:15;59.33;;;46.28;;
57730;SDS011;43570;47.476;19.040;2023-02-17T14:13:44;57.88;;;47.55;;
57730;SDS011;43570;47.476;19.040;2023-02-17T14:16:25;53.22;;;45.85;;
57730;SDS011;43570;47.476;19.040;2023-02-17T14:21:28;56.78;;;49.10;;
57730;SDS011;43570;47.476;19.040;2023-02-17T14:23:54;57.72;;;50.38;;
57730;SDS011;43570;47.476;19.040;2023-02-17T14:31:40;65.45;;;51.22;;
57730;SDS011;43570;47.476;19.040;2023-02-17T14:34:25;61.95;;;49.70;;
57730;SDS011;43570;47.476;19.040;2023-02-17T14:36:52;61.08;;;49.75;;
57730;SDS011;43570;47.476;19.040;2023-02-17T14:39:18;60.03;;;49.92;;
57730;SDS011;43570;47.476;19.040;2023-02-17T14:41:43;61.30;;;50.30;;
57730;SDS011;43570;47.476;19.040;2023-02-17T14:44:09;64.05;;;49.85;;
57730;SDS011;43570;47.476;19.040;2023-02-17T14:46:35;57.60;;;49.50;;
57730;SDS011;43570;47.476;19.040;2023-02-17T14:49:01;57.47;;;47.03;;
57730;SDS011;43570;47.476;19.040;2023-02-17T14:51:34;59.47;;;49.17;;
57730;SDS011;43570;47.476;19.040;2023-02-17T14:54:11;57.95;;;47.90;;
57730;SDS011;43570;47.476;19.040;2023-02-17T14:56:51;60.50;;;47.78;;
57730;SDS011;43570;47.476;19.040;2023-02-17T14:59:32;60.28;;;45.60;;
57730;SDS011;43570;47.476;19.040;2023-02-17T15:01:57;56.13;;;46.90;;
57730;SDS011;43570;47.476;19.040;2023-02-17T15:04:23;52.17;;;44.10;;
57730;SDS011;43570;47.476;19.040;2023-02-17T15:06:49;54.65;;;44.42;;
57730;SDS011;43570;47.476;19.040;2023-02-17T15:09:16;60.20;;;47.90;;
57730;SDS011;43570;47.476;19.040;2023-02-17T15:11:45;54.88;;;44.95;;
57730;SDS011;43570;47.476;19.040;2023-02-17T15:14:14;55.25;;;44.45;;
57730;SDS011;43570;47.476;19.040;2023-02-17T15:16:41;57.30;;;45.80;;
57730;SDS011;43570;47.476;19.040;2023-02-17T15:19:08;52.33;;;43.87;;
57730;SDS011;43570;47.476;19.040;2023-02-17T15:21:34;52.95;;;43.65;;
57730;SDS011;43570;47.476;19.040;2023-02-17T15:24:01;53.13;;;42.47;;
57730;SDS011;43570;47.476;19.040;2023-02-17T15:26:28;53.67;;;43.17;;
57730;SDS011;43570;47.476;19.040;2023-02-17T15:28:54;53.78;;;43.53;;
57730;SDS011;43570;47.476;19.040;2023-02-17T15:31:21;54.20;;;43.50;;
57730;SDS011;43570;47.476;19.040;2023-02-17T15:33:49;55.65;;;43.20;;
57730;SDS011;43570;47.476;19.040;2023-02-17T15:36:19;53.85;;;43.00;;
57730;SDS011;43570;47.476;19.040;2023-02-17T15:38:45;53.00;;;41.97;;
57730;SDS011;43570;47.476;19.040;2023-02-17T15:41:12;56.28;;;42.85;;
57730;SDS011;43570;47.476;19.040;2023-02-17T15:43:38;53.75;;;42.60;;
57730;SDS011;43570;47.476;19.040;2023-02-17T15:46:09;50.90;;;40.22;;
57730;SDS011;43570;47.476;19.040;2023-02-17T15:48:36;51.80;;;43.13;;
57730;SDS011;43570;47.476;19.040;2023-02-17T15:51:03;53.17;;;41.63;;
57730;SDS011;43570;47.476;19.040;2023-02-17T15:53:28;51.22;;;41.08;;
57730;SDS011;43570;47.476;19.040;2023-02-17T15:55:57;55.55;;;44.75;;
57730;SDS011;43570;47.476;19.040;2023-02-17T15:58:25;53.80;;;43.22;;
57730;SDS011;43570;47.476;19.040;2023-02-17T16:00:51;51.40;;;41.90;;
57730;SDS011;43570;47.476;19.040;2023-02-17T16:03:24;54.33;;;43.28;;
57730;SDS011;43570;47.476;19.040;2023-02-17T16:05:50;55.00;;;41.90;;
57730;SDS011;43570;47.476;19.040;2023-02-17T16:08:15;53.03;;;42.38;;
57730;SDS011;43570;47.476;19.040;2023-02-17T16:10:41;56.80;;;42.53;;
57730;SDS011;43570;47.476;19.040;2023-02-17T16:13:10;55.45;;;43.65;;
57730;SDS011;43570;47.476;19.040;2023-02-17T16:15:38;51.45;;;41.50;;
57730;SDS011;43570;47.476;19.040;2023-02-17T16:18:03;51.95;;;43.13;;
57730;SDS011;43570;47.476;19.040;2023-02-17T16:20:30;48.80;;;41.90;;
57730;SDS011;43570;47.476;19.040;2023-02-17T16:22:59;56.00;;;42.70;;